createdAt,value
2018-04-18T00:00:12.295Z,1019.88
2018-04-18T00:01:12.278Z,1019.87
2018-04-18T00:02:12.263Z,1019.89
2018-04-18T00:03:12.249Z,1019.88
2018-04-18T00:04:12.233Z,1019.87
2018-04-18T00:05:12.221Z,1019.82
2018-04-18T00:06:12.206Z,1019.8
2018-04-18T00:07:12.192Z,1019.84
2018-04-18T00:08:12.182Z,1019.86
2018-04-18T00:09:12.164Z,1019.85
2018-04-18T00:10:12.151Z,1019.81
2018-04-18T00:11:12.138Z,1019.8
2018-04-18T00:12:12.121Z,1019.82
2018-04-18T00:13:12.104Z,1019.78
2018-04-18T00:14:12.087Z,1019.79
2018-04-18T00:15:12.077Z,1019.77
2018-04-18T00:16:12.063Z,1019.76
2018-04-18T00:17:12.048Z,1019.74
2018-04-18T00:18:12.031Z,1019.75
2018-04-18T00:19:12.017Z,1019.77
2018-04-18T00:20:12.003Z,1019.77
2018-04-18T00:21:11.990Z,1019.75
2018-04-18T00:22:11.971Z,1019.7
2018-04-18T00:23:11.957Z,1019.7
2018-04-18T00:24:11.945Z,1019.71
2018-04-18T00:25:11.929Z,1019.74
2018-04-18T00:26:11.915Z,1019.75
2018-04-18T00:27:11.902Z,1019.73
2018-04-18T00:28:11.885Z,1019.73
2018-04-18T00:29:11.870Z,1019.73
2018-04-18T00:30:11.862Z,1019.74
2018-04-18T00:31:11.840Z,1019.73
2018-04-18T00:32:11.827Z,1019.76
2018-04-18T00:33:11.811Z,1019.74
2018-04-18T00:34:11.796Z,1019.78
2018-04-18T00:35:11.985Z,1019.76
2018-04-18T00:36:11.767Z,1019.77
2018-04-18T00:37:11.787Z,1019.77
2018-04-18T00:38:11.743Z,1019.79
2018-04-18T00:39:11.722Z,1019.77
2018-04-18T00:40:11.709Z,1019.79
2018-04-18T00:41:11.695Z,1019.87
2018-04-18T00:42:11.680Z,1019.93
2018-04-18T00:43:11.664Z,1019.95
2018-04-18T00:44:11.651Z,1019.92
2018-04-18T00:45:11.639Z,1019.94
2018-04-18T00:46:11.621Z,1019.93
2018-04-18T00:47:11.606Z,1019.9
2018-04-18T00:48:11.590Z,1019.91
2018-04-18T00:49:11.577Z,1019.88
2018-04-18T00:50:11.569Z,1019.96
2018-04-18T00:51:11.553Z,1020.03
2018-04-18T00:52:11.533Z,1020
2018-04-18T00:53:11.518Z,1019.94
2018-04-18T00:54:11.501Z,1019.98
2018-04-18T00:55:11.490Z,1020
2018-04-18T00:56:11.475Z,1020.06
2018-04-18T00:57:11.458Z,1020.06
2018-04-18T00:58:11.443Z,1020.06
2018-04-18T00:59:11.428Z,1020.07
2018-04-18T01:00:11.413Z,1020.08
2018-04-18T01:01:11.397Z,1020.07
2018-04-18T01:02:11.383Z,1020.09
2018-04-18T01:03:11.367Z,1020.05
2018-04-18T01:04:11.352Z,1020.09
2018-04-18T01:05:11.338Z,1020.09
2018-04-18T01:06:11.322Z,1020.13
2018-04-18T01:07:11.308Z,1020.09
2018-04-18T01:08:11.292Z,1020.11
2018-04-18T01:09:11.279Z,1020.08
2018-04-18T01:10:11.266Z,1020.11
2018-04-18T01:11:11.248Z,1020.13
2018-04-18T01:12:11.234Z,1020.13
2018-04-18T01:13:11.217Z,1020.14
2018-04-18T01:14:11.204Z,1020.18
2018-04-18T01:15:11.188Z,1020.16
2018-04-18T01:16:11.173Z,1020.18
2018-04-18T01:17:11.157Z,1020.18
2018-04-18T01:18:11.144Z,1020.16
2018-04-18T01:19:11.129Z,1020.13
2018-04-18T01:20:11.111Z,1020.21
2018-04-18T01:21:11.101Z,1020.19
2018-04-18T01:22:11.082Z,1020.17
2018-04-18T01:23:11.066Z,1020.18
2018-04-18T01:24:11.051Z,1020.16
2018-04-18T01:25:11.037Z,1020.15
2018-04-18T01:26:11.023Z,1020.18
2018-04-18T01:27:11.012Z,1020.19
2018-04-18T01:28:10.992Z,1020.17
2018-04-18T01:29:10.976Z,1020.15
2018-04-18T01:30:10.961Z,1020.17
2018-04-18T01:31:10.948Z,1020.16
2018-04-18T01:32:10.933Z,1020.19
2018-04-18T01:33:10.915Z,1020.14
2018-04-18T01:34:10.900Z,1020.17
2018-04-18T01:35:10.888Z,1020.18
2018-04-18T01:36:10.878Z,1020.19
2018-04-18T01:37:10.857Z,1020.16
2018-04-18T01:38:10.840Z,1020.13
2018-04-18T01:39:10.827Z,1020.15
2018-04-18T01:40:10.808Z,1020.16
2018-04-18T01:41:10.797Z,1020.2
2018-04-18T01:42:10.780Z,1020.22
2018-04-18T01:43:10.765Z,1020.17
2018-04-18T01:44:10.754Z,1020.25
2018-04-18T01:45:10.734Z,1020.21
2018-04-18T01:46:10.720Z,1020.24
2018-04-18T01:47:10.704Z,1020.24
2018-04-18T01:48:10.689Z,1020.29
2018-04-18T01:49:10.672Z,1020.29
2018-04-18T01:50:10.659Z,1020.25
2018-04-18T01:51:10.644Z,1020.3
2018-04-18T01:52:10.628Z,1020.3
2018-04-18T01:53:10.614Z,1020.33
2018-04-18T01:54:10.598Z,1020.36
2018-04-18T01:55:10.582Z,1020.36
2018-04-18T01:56:10.570Z,1020.33
2018-04-18T01:57:10.551Z,1020.36
2018-04-18T01:58:10.537Z,1020.4
2018-04-18T01:59:10.522Z,1020.36
2018-04-18T02:00:10.504Z,1020.36
2018-04-18T02:01:10.492Z,1020.39
2018-04-18T02:02:10.475Z,1020.42
2018-04-18T02:03:10.463Z,1020.47
2018-04-18T02:04:10.444Z,1020.48
2018-04-18T02:05:10.429Z,1020.48
2018-04-18T02:06:10.417Z,1020.5
2018-04-18T02:07:10.401Z,1020.49
2018-04-18T02:08:10.383Z,1020.5
2018-04-18T02:09:10.371Z,1020.49
2018-04-18T02:10:10.352Z,1020.53
2018-04-18T02:11:10.341Z,1020.52
2018-04-18T02:12:10.322Z,1020.52
2018-04-18T02:13:10.309Z,1020.58
2018-04-18T02:14:10.289Z,1020.57
2018-04-18T02:15:10.277Z,1020.58
2018-04-18T02:16:10.260Z,1020.58
2018-04-18T02:17:10.245Z,1020.58
2018-04-18T02:18:10.239Z,1020.58
2018-04-18T02:19:10.214Z,1020.56
2018-04-18T02:20:10.199Z,1020.61
2018-04-18T02:21:10.186Z,1020.58
2018-04-18T02:22:10.168Z,1020.59
2018-04-18T02:23:10.154Z,1020.62
2018-04-18T02:24:10.135Z,1020.56
2018-04-18T02:25:10.121Z,1020.61
2018-04-18T02:26:10.104Z,1020.6
2018-04-18T02:27:10.091Z,1020.6
2018-04-18T02:28:10.073Z,1020.63
2018-04-18T02:29:10.057Z,1020.66
2018-04-18T02:30:10.045Z,1020.59
2018-04-18T02:31:10.036Z,1020.61
2018-04-18T02:32:10.014Z,1020.61
2018-04-18T02:33:09.996Z,1020.6
2018-04-18T02:34:09.981Z,1020.61
2018-04-18T02:35:10.166Z,1020.62
2018-04-18T02:36:09.949Z,1020.64
2018-04-18T02:37:09.932Z,1020.67
2018-04-18T02:38:09.917Z,1020.65
2018-04-18T02:39:09.903Z,1020.63
2018-04-18T02:40:09.889Z,1020.65
2018-04-18T02:41:09.873Z,1020.65
2018-04-18T02:42:09.853Z,1020.67
2018-04-18T02:43:09.840Z,1020.68
2018-04-18T02:44:09.826Z,1020.68
2018-04-18T02:45:09.810Z,1020.67
2018-04-18T02:46:09.795Z,1020.68
2018-04-18T02:47:09.779Z,1020.67
2018-04-18T02:48:09.762Z,1020.71
2018-04-18T02:49:09.747Z,1020.75
2018-04-18T02:50:09.731Z,1020.74
2018-04-18T02:51:09.712Z,1020.78
2018-04-18T02:52:09.697Z,1020.8
2018-04-18T02:53:09.683Z,1020.81
2018-04-18T02:54:09.667Z,1020.79
2018-04-18T02:55:09.648Z,1020.83
2018-04-18T02:56:09.635Z,1020.82
2018-04-18T02:57:09.617Z,1020.84
2018-04-18T02:58:09.602Z,1020.85
2018-04-18T02:59:09.586Z,1020.87
2018-04-18T03:00:09.570Z,1020.89
2018-04-18T03:01:09.556Z,1020.88
2018-04-18T03:02:09.535Z,1020.89
2018-04-18T03:03:09.524Z,1020.89
2018-04-18T03:04:09.708Z,1020.85
2018-04-18T03:05:09.490Z,1020.85
2018-04-18T03:06:09.473Z,1020.8
2018-04-18T03:07:09.460Z,1020.86
2018-04-18T03:08:09.443Z,1020.84
2018-04-18T03:09:09.431Z,1020.84
2018-04-18T03:10:09.410Z,1020.83
2018-04-18T03:11:09.398Z,1020.87
2018-04-18T03:12:09.383Z,1020.85
2018-04-18T03:13:09.364Z,1020.84
2018-04-18T03:14:09.346Z,1020.9
2018-04-18T03:15:09.329Z,1020.85
2018-04-18T03:16:09.319Z,1020.86
2018-04-18T03:17:09.299Z,1020.91
2018-04-18T03:18:09.284Z,1020.89
2018-04-18T03:19:09.266Z,1020.91
2018-04-18T03:20:09.252Z,1020.92
2018-04-18T03:21:09.234Z,1020.95
2018-04-18T03:22:09.220Z,1020.96
2018-04-18T03:23:09.204Z,1020.95
2018-04-18T03:24:09.188Z,1020.96
2018-04-18T03:25:09.170Z,1020.97
2018-04-18T03:26:09.155Z,1021.03
2018-04-18T03:27:09.137Z,1021.05
2018-04-18T03:28:09.121Z,1021.06
2018-04-18T03:29:09.108Z,1021.05
2018-04-18T03:30:09.093Z,1021.06
2018-04-18T03:31:09.077Z,1021.04
2018-04-18T03:32:09.059Z,1021.12
2018-04-18T03:33:09.044Z,1021.1
2018-04-18T03:34:09.030Z,1021.11
2018-04-18T03:35:09.011Z,1021.09
2018-04-18T03:36:08.996Z,1021.11
2018-04-18T03:37:08.981Z,1021.14
2018-04-18T03:38:08.965Z,1021.1
2018-04-18T03:39:08.947Z,1021.16
2018-04-18T03:40:08.933Z,1021.16
2018-04-18T03:41:08.915Z,1021.17
2018-04-18T03:42:08.899Z,1021.16
2018-04-18T03:43:08.884Z,1021.14
2018-04-18T03:44:08.865Z,1021.15
2018-04-18T03:45:08.851Z,1021.19
2018-04-18T03:46:08.850Z,1021.2
2018-04-18T03:47:08.818Z,1021.17
2018-04-18T03:48:08.806Z,1021.19
2018-04-18T03:49:08.788Z,1021.2
2018-04-18T03:50:08.768Z,1021.23
2018-04-18T03:51:08.753Z,1021.22
2018-04-18T03:52:08.738Z,1021.24
2018-04-18T03:53:08.721Z,1021.25
2018-04-18T03:54:08.703Z,1021.29
2018-04-18T03:55:08.687Z,1021.28
2018-04-18T03:56:08.672Z,1021.28
2018-04-18T03:57:08.654Z,1021.27
2018-04-18T03:58:08.691Z,1021.28
2018-04-18T03:59:08.623Z,1021.31
2018-04-18T04:00:08.605Z,1021.27
2018-04-18T04:01:08.591Z,1021.3
2018-04-18T04:02:08.575Z,1021.36
2018-04-18T04:03:08.563Z,1021.31
2018-04-18T04:04:08.543Z,1021.37
2018-04-18T04:05:08.531Z,1021.34
2018-04-18T04:06:08.509Z,1021.35
2018-04-18T04:07:08.492Z,1021.35
2018-04-18T04:08:08.475Z,1021.37
2018-04-18T04:09:08.461Z,1021.36
2018-04-18T04:10:08.444Z,1021.4
2018-04-18T04:11:08.429Z,1021.41
2018-04-18T04:12:08.410Z,1021.42
2018-04-18T04:13:08.394Z,1021.41
2018-04-18T04:14:08.377Z,1021.43
2018-04-18T04:15:08.363Z,1021.47
2018-04-18T04:16:08.347Z,1021.47
2018-04-18T04:17:08.329Z,1021.46
2018-04-18T04:18:08.314Z,1021.47
2018-04-18T04:19:08.296Z,1021.46
2018-04-18T04:20:08.280Z,1021.49
2018-04-18T04:21:08.265Z,1021.49
2018-04-18T04:22:08.251Z,1021.47
2018-04-18T04:23:08.233Z,1021.48
2018-04-18T04:24:08.215Z,1021.49
2018-04-18T04:25:08.200Z,1021.47
2018-04-18T04:26:08.182Z,1021.49
2018-04-18T04:27:08.169Z,1021.53
2018-04-18T04:28:08.149Z,1021.55
2018-04-18T04:29:08.135Z,1021.53
2018-04-18T04:30:08.116Z,1021.54
2018-04-18T04:31:08.099Z,1021.55
2018-04-18T04:32:08.085Z,1021.57
2018-04-18T04:33:08.065Z,1021.58
2018-04-18T04:34:08.049Z,1021.61
2018-04-18T04:35:08.235Z,1021.59
2018-04-18T04:36:08.019Z,1021.62
2018-04-18T04:37:08.003Z,1021.62
2018-04-18T04:38:07.985Z,1021.66
2018-04-18T04:39:07.966Z,1021.65
2018-04-18T04:40:07.953Z,1021.66
2018-04-18T04:41:07.936Z,1021.71
2018-04-18T04:42:07.918Z,1021.7
2018-04-18T04:43:07.909Z,1021.72
2018-04-18T04:44:07.887Z,1021.73
2018-04-18T04:45:07.868Z,1021.74
2018-04-18T04:46:07.854Z,1021.72
2018-04-18T04:47:07.835Z,1021.71
2018-04-18T04:48:07.822Z,1021.73
2018-04-18T04:49:07.807Z,1021.72
2018-04-18T04:50:07.786Z,1021.73
2018-04-18T04:51:07.772Z,1021.75
2018-04-18T04:52:07.756Z,1021.75
2018-04-18T04:53:07.746Z,1021.8
2018-04-18T04:54:07.724Z,1021.78
2018-04-18T04:55:07.705Z,1021.83
2018-04-18T04:56:07.695Z,1021.85
2018-04-18T04:57:07.671Z,1021.83
2018-04-18T04:58:07.655Z,1021.82
2018-04-18T04:59:07.642Z,1021.82
2018-04-18T05:00:07.622Z,1021.84
2018-04-18T05:01:07.610Z,1021.85
2018-04-18T05:02:07.592Z,1021.87
2018-04-18T05:03:07.570Z,1021.88
2018-04-18T05:04:07.556Z,1021.83
2018-04-18T05:05:07.539Z,1021.83
2018-04-18T05:06:07.522Z,1021.88
2018-04-18T05:07:07.505Z,1021.9
2018-04-18T05:08:07.489Z,1021.87
2018-04-18T05:09:07.478Z,1021.9
2018-04-18T05:10:07.460Z,1021.92
2018-04-18T05:11:07.444Z,1021.96
2018-04-18T05:12:07.425Z,1021.96
2018-04-18T05:13:07.406Z,1021.95
2018-04-18T05:14:07.394Z,1021.99
2018-04-18T05:15:07.375Z,1021.99
2018-04-18T05:16:07.363Z,1022.01
2018-04-18T05:17:07.343Z,1021.99
2018-04-18T05:18:07.336Z,1022.09
2018-04-18T05:19:07.310Z,1022.06
2018-04-18T05:20:07.294Z,1022.09
2018-04-18T05:21:07.285Z,1022.05
2018-04-18T05:22:07.259Z,1022.1
2018-04-18T05:23:07.244Z,1022.14
2018-04-18T05:24:07.228Z,1022.13
2018-04-18T05:25:07.211Z,1022.1
2018-04-18T05:26:07.199Z,1022.13
2018-04-18T05:27:07.179Z,1022.17
2018-04-18T05:28:07.162Z,1022.15
2018-04-18T05:29:07.145Z,1022.17
2018-04-18T05:30:07.134Z,1022.2
2018-04-18T05:31:07.115Z,1022.18
2018-04-18T05:32:07.097Z,1022.17
2018-04-18T05:33:07.082Z,1022.19
2018-04-18T05:34:07.067Z,1022.23
2018-04-18T05:35:07.051Z,1022.24
2018-04-18T05:36:07.033Z,1022.21
2018-04-18T05:37:07.019Z,1022.26
2018-04-18T05:38:07.000Z,1022.28
2018-04-18T05:39:06.989Z,1022.27
2018-04-18T05:40:06.973Z,1022.29
2018-04-18T05:41:06.955Z,1022.26
2018-04-18T05:42:06.939Z,1022.32
2018-04-18T05:43:06.919Z,1022.28
2018-04-18T05:44:06.907Z,1022.33
2018-04-18T05:45:06.937Z,1022.34
2018-04-18T05:46:06.874Z,1022.36
2018-04-18T05:47:06.857Z,1022.39
2018-04-18T05:48:06.841Z,1022.35
2018-04-18T05:49:06.824Z,1022.41
2018-04-18T05:50:06.814Z,1022.42
2018-04-18T05:51:06.795Z,1022.39
2018-04-18T05:52:06.783Z,1022.42
2018-04-18T05:53:06.763Z,1022.43
2018-04-18T05:54:06.759Z,1022.44
2018-04-18T05:55:06.732Z,1022.43
2018-04-18T05:56:06.722Z,1022.41
2018-04-18T05:57:06.705Z,1022.43
2018-04-18T05:58:06.685Z,1022.47
2018-04-18T05:59:06.669Z,1022.45
2018-04-18T06:00:06.655Z,1022.45
2018-04-18T06:01:06.636Z,1022.47
2018-04-18T06:02:06.627Z,1022.48
2018-04-18T06:03:06.607Z,1022.48
2018-04-18T06:04:06.595Z,1022.52
2018-04-18T06:05:06.576Z,1022.51
2018-04-18T06:06:06.559Z,1022.52
2018-04-18T06:07:06.545Z,1022.55
2018-04-18T06:08:06.531Z,1022.57
2018-04-18T06:09:06.512Z,1022.57
2018-04-18T06:10:06.500Z,1022.57
2018-04-18T06:11:06.485Z,1022.57
2018-04-18T06:12:06.470Z,1022.56
2018-04-18T06:13:06.454Z,1022.57
2018-04-18T06:14:06.439Z,1022.58
2018-04-18T06:15:06.422Z,1022.6
2018-04-18T06:16:06.412Z,1022.6
2018-04-18T06:17:06.394Z,1022.65
2018-04-18T06:18:06.383Z,1022.65
2018-04-18T06:19:06.395Z,1022.68
2018-04-18T06:20:06.347Z,1022.67
2018-04-18T06:21:06.332Z,1022.66
2018-04-18T06:22:06.317Z,1022.71
2018-04-18T06:23:06.303Z,1022.69
2018-04-18T06:24:06.291Z,1022.69
2018-04-18T06:25:06.272Z,1022.72
2018-04-18T06:26:06.263Z,1022.74
2018-04-18T06:27:06.243Z,1022.76
2018-04-18T06:28:06.235Z,1022.77
2018-04-18T06:29:06.213Z,1022.76
2018-04-18T06:30:06.199Z,1022.76
2018-04-18T06:31:06.186Z,1022.79
2018-04-18T06:32:06.169Z,1022.78
2018-04-18T06:33:06.155Z,1022.78
2018-04-18T06:34:06.142Z,1022.82
2018-04-18T06:35:06.331Z,1022.83
2018-04-18T06:36:06.110Z,1022.83
2018-04-18T06:37:06.097Z,1022.87
2018-04-18T06:38:06.082Z,1022.85
2018-04-18T06:39:06.066Z,1022.88
2018-04-18T06:40:06.056Z,1022.9
2018-04-18T06:41:06.039Z,1022.87
2018-04-18T06:42:06.024Z,1022.87
2018-04-18T06:43:06.010Z,1022.86
2018-04-18T06:44:05.997Z,1022.9
2018-04-18T06:45:05.981Z,1022.9
2018-04-18T06:46:05.968Z,1022.92
2018-04-18T06:47:05.953Z,1022.91
2018-04-18T06:48:05.942Z,1022.89
2018-04-18T06:49:05.926Z,1022.92
2018-04-18T06:50:05.910Z,1022.91
2018-04-18T06:51:05.898Z,1022.93
2018-04-18T06:52:05.883Z,1022.92
2018-04-18T06:53:05.875Z,1022.95
2018-04-18T06:54:05.856Z,1022.91
2018-04-18T06:55:05.841Z,1022.94
2018-04-18T06:56:05.829Z,1022.94
2018-04-18T06:57:05.822Z,1022.93
2018-04-18T06:58:05.802Z,1022.95
2018-04-18T06:59:05.788Z,1022.99
2018-04-18T07:00:05.774Z,1022.98
2018-04-18T07:01:05.761Z,1023.01
2018-04-18T07:02:05.748Z,1023.08
2018-04-18T07:03:05.737Z,1023.05
2018-04-18T07:04:05.725Z,1023.08
2018-04-18T07:05:05.707Z,1023.12
2018-04-18T07:06:05.694Z,1023.1
2018-04-18T07:07:05.682Z,1023.1
2018-04-18T07:08:05.667Z,1023.14
2018-04-18T07:09:05.655Z,1023.14
2018-04-18T07:10:05.642Z,1023.18
2018-04-18T07:11:05.627Z,1023.18
2018-04-18T07:12:05.616Z,1023.19
2018-04-18T07:13:05.606Z,1023.18
2018-04-18T07:14:05.590Z,1023.17
2018-04-18T07:15:05.575Z,1023.22
2018-04-18T07:16:05.562Z,1023.19
2018-04-18T07:17:05.548Z,1023.19
2018-04-18T07:18:05.540Z,1023.18
2018-04-18T07:19:05.523Z,1023.19
2018-04-18T07:20:05.510Z,1023.2
2018-04-18T07:21:05.505Z,1023.2
2018-04-18T07:22:05.484Z,1023.22
2018-04-18T07:23:05.472Z,1023.25
2018-04-18T07:24:05.469Z,1023.26
2018-04-18T07:25:05.447Z,1023.27
2018-04-18T07:26:05.435Z,1023.27
2018-04-18T07:27:05.423Z,1023.27
2018-04-18T07:28:05.411Z,1023.24
2018-04-18T07:29:05.400Z,1023.26
2018-04-18T07:30:05.385Z,1023.23
2018-04-18T07:31:05.373Z,1023.24
2018-04-18T07:32:05.360Z,1023.26
2018-04-18T07:33:05.349Z,1023.23
2018-04-18T07:34:05.335Z,1023.27
2018-04-18T07:35:05.323Z,1023.26
2018-04-18T07:36:05.310Z,1023.32
2018-04-18T07:37:05.299Z,1023.3
2018-04-18T07:38:05.288Z,1023.32
2018-04-18T07:39:05.275Z,1023.29
2018-04-18T07:40:05.299Z,1023.32
2018-04-18T07:41:05.253Z,1023.37
2018-04-18T07:42:05.243Z,1023.36
2018-04-18T07:43:05.229Z,1023.34
2018-04-18T07:44:05.214Z,1023.32
2018-04-18T07:45:05.204Z,1023.32
2018-04-18T07:46:05.191Z,1023.3
2018-04-18T07:47:05.182Z,1023.3
2018-04-18T07:48:05.166Z,1023.32
2018-04-18T07:49:05.158Z,1023.32
2018-04-18T07:50:05.151Z,1023.31
2018-04-18T07:51:05.133Z,1023.35
2018-04-18T07:52:05.123Z,1023.34
2018-04-18T07:53:05.111Z,1023.39
2018-04-18T07:54:05.112Z,1023.38
2018-04-18T07:55:05.087Z,1023.35
2018-04-18T07:56:05.076Z,1023.39
2018-04-18T07:57:05.067Z,1023.39
2018-04-18T07:58:05.054Z,1023.42
2018-04-18T07:59:05.041Z,1023.42
2018-04-18T08:00:05.035Z,1023.44
2018-04-18T08:01:05.021Z,1023.49
2018-04-18T08:02:05.008Z,1023.5
2018-04-18T08:03:04.999Z,1023.45
2018-04-18T08:04:04.988Z,1023.48
2018-04-18T08:05:04.976Z,1023.49
2018-04-18T08:06:04.964Z,1023.43
2018-04-18T08:07:04.959Z,1023.5
2018-04-18T08:08:04.943Z,1023.48
2018-04-18T08:09:04.932Z,1023.45
2018-04-18T08:10:04.925Z,1023.57
2018-04-18T08:11:04.911Z,1023.75
2018-04-18T08:12:04.903Z,1023.79
2018-04-18T08:13:04.890Z,1023.8
2018-04-18T08:14:04.881Z,1023.72
2018-04-18T08:15:04.872Z,1023.71
2018-04-18T08:16:04.862Z,1023.7
2018-04-18T08:17:04.856Z,1023.73
2018-04-18T08:18:04.843Z,1023.79
2018-04-18T08:19:04.838Z,1023.81
2018-04-18T08:20:04.831Z,1023.71
2018-04-18T08:21:04.823Z,1023.77
2018-04-18T08:22:04.815Z,1023.81
2018-04-18T08:23:04.807Z,1023.83
2018-04-18T08:24:04.801Z,1023.76
2018-04-18T08:25:04.794Z,1023.66
2018-04-18T08:26:04.789Z,1023.7
2018-04-18T08:27:04.782Z,1023.81
2018-04-18T08:28:04.779Z,1023.82
2018-04-18T08:29:04.773Z,1023.79
2018-04-18T08:30:04.767Z,1023.82
2018-04-18T08:31:04.758Z,1023.76
2018-04-18T08:32:04.760Z,1023.77
2018-04-18T08:33:04.749Z,1023.77
2018-04-18T08:34:04.799Z,1023.8
2018-04-18T08:35:04.742Z,1023.75
2018-04-18T08:36:04.734Z,1023.78
2018-04-18T08:37:04.731Z,1023.8
2018-04-18T08:38:04.729Z,1023.81
2018-04-18T08:39:04.721Z,1023.93
2018-04-18T08:40:04.721Z,1023.96
2018-04-18T08:41:04.715Z,1024.02
2018-04-18T08:42:04.709Z,1024.02
2018-04-18T08:43:04.709Z,1023.96
2018-04-18T08:44:04.704Z,1023.84
2018-04-18T08:45:04.701Z,1023.87
2018-04-18T08:46:04.699Z,1023.85
2018-04-18T08:47:04.696Z,1023.85
2018-04-18T08:48:04.701Z,1023.9
2018-04-18T08:49:04.694Z,1023.96
2018-04-18T08:50:04.686Z,1023.97
2018-04-18T08:51:04.683Z,1023.93
2018-04-18T08:52:04.681Z,1023.91
2018-04-18T08:53:04.678Z,1023.94
2018-04-18T08:54:04.675Z,1023.87
2018-04-18T08:55:04.679Z,1023.87
2018-04-18T08:56:04.674Z,1023.82
2018-04-18T08:57:04.666Z,1023.87
2018-04-18T08:58:04.667Z,1023.85
2018-04-18T08:59:04.663Z,1023.8
2018-04-18T09:00:04.659Z,1023.85
2018-04-18T09:01:04.659Z,1023.87
2018-04-18T09:02:04.693Z,1023.84
2018-04-18T09:03:04.652Z,1023.85
2018-04-18T09:04:04.648Z,1023.88
2018-04-18T09:05:04.645Z,1023.94
2018-04-18T09:06:04.642Z,1023.93
2018-04-18T09:07:04.641Z,1023.92
2018-04-18T09:08:04.637Z,1023.94
2018-04-18T09:09:04.634Z,1023.98
2018-04-18T09:10:04.632Z,1024
2018-04-18T09:11:04.631Z,1023.86
2018-04-18T09:12:04.627Z,1023.84
2018-04-18T09:13:04.625Z,1023.8
2018-04-18T09:14:04.629Z,1023.82
2018-04-18T09:15:04.620Z,1023.81
2018-04-18T09:16:04.617Z,1023.77
2018-04-18T09:17:04.618Z,1023.76
2018-04-18T09:18:04.614Z,1023.82
2018-04-18T09:19:04.612Z,1023.86
2018-04-18T09:20:04.608Z,1023.85
2018-04-18T09:21:04.606Z,1023.9
2018-04-18T09:22:04.601Z,1023.85
2018-04-18T09:23:04.600Z,1023.83
2018-04-18T09:24:04.597Z,1023.87
2018-04-18T09:25:04.594Z,1023.89
2018-04-18T09:26:04.592Z,1023.91
2018-04-18T09:27:04.591Z,1023.88
2018-04-18T09:28:04.589Z,1023.85
2018-04-18T09:29:04.587Z,1023.81
2018-04-18T09:30:04.587Z,1023.82
2018-04-18T09:31:04.586Z,1023.88
2018-04-18T09:32:04.584Z,1024
2018-04-18T09:33:04.581Z,1023.91
2018-04-18T09:34:04.577Z,1023.81
2018-04-18T09:35:04.581Z,1023.85
2018-04-18T09:36:04.577Z,1023.85
2018-04-18T09:37:04.578Z,1023.81
2018-04-18T09:38:04.574Z,1023.76
2018-04-18T09:39:04.575Z,1023.74
2018-04-18T09:40:04.574Z,1023.71
2018-04-18T09:41:04.570Z,1023.75
2018-04-18T09:42:04.572Z,1023.77
2018-04-18T09:43:04.569Z,1023.78
2018-04-18T09:44:04.571Z,1023.76
2018-04-18T09:45:04.578Z,1023.73
2018-04-18T09:46:04.564Z,1023.78
2018-04-18T09:47:04.562Z,1023.79
2018-04-18T09:48:04.560Z,1023.77
2018-04-18T09:49:04.557Z,1023.78
2018-04-18T09:50:04.556Z,1023.77
2018-04-18T09:51:04.553Z,1023.72
2018-04-18T09:52:04.552Z,1023.73
2018-04-18T09:53:04.552Z,1023.61
2018-04-18T09:54:04.546Z,1023.63
2018-04-18T09:55:04.545Z,1023.69
2018-04-18T09:56:04.545Z,1023.66
2018-04-18T09:57:04.539Z,1023.69
2018-04-18T09:58:04.537Z,1023.71
2018-04-18T09:59:04.535Z,1023.66
2018-04-18T10:00:04.532Z,1023.64
2018-04-18T10:01:04.529Z,1023.7
2018-04-18T10:02:04.526Z,1023.72
2018-04-18T10:03:04.526Z,1023.67
2018-04-18T10:04:04.521Z,1023.69
2018-04-18T10:05:04.519Z,1023.66
2018-04-18T10:06:04.523Z,1023.65
2018-04-18T10:07:04.514Z,1023.61
2018-04-18T10:08:04.513Z,1023.59
2018-04-18T10:09:04.511Z,1023.58
2018-04-18T10:10:04.515Z,1023.6
2018-04-18T10:11:04.504Z,1023.58
2018-04-18T10:12:04.502Z,1023.54
2018-04-18T10:13:04.499Z,1023.59
2018-04-18T10:14:04.496Z,1023.56
2018-04-18T10:15:04.494Z,1023.56
2018-04-18T10:16:04.493Z,1023.6
2018-04-18T10:17:04.489Z,1023.6
2018-04-18T10:18:04.485Z,1023.6
2018-04-18T10:19:04.491Z,1023.59
2018-04-18T10:20:04.481Z,1023.56
2018-04-18T10:21:04.480Z,1023.55
2018-04-18T10:22:04.475Z,1023.55
2018-04-18T10:23:04.489Z,1023.56
2018-04-18T10:24:04.476Z,1023.59
2018-04-18T10:25:04.467Z,1023.64
2018-04-18T10:26:04.463Z,1023.61
2018-04-18T10:27:04.463Z,1023.59
2018-04-18T10:28:04.493Z,1023.61
2018-04-18T10:29:04.456Z,1023.57
2018-04-18T10:30:04.454Z,1023.59
2018-04-18T10:31:04.452Z,1023.67
2018-04-18T10:32:04.448Z,1023.63
2018-04-18T10:33:04.447Z,1023.65
2018-04-18T10:34:04.447Z,1023.57
2018-04-18T10:35:04.443Z,1023.54
2018-04-18T10:36:04.445Z,1023.6
2018-04-18T10:37:04.440Z,1023.55
2018-04-18T10:38:04.442Z,1023.56
2018-04-18T10:39:04.437Z,1023.56
2018-04-18T10:40:04.441Z,1023.6
2018-04-18T10:41:04.443Z,1023.6
2018-04-18T10:42:04.434Z,1023.61
2018-04-18T10:43:04.433Z,1023.58
2018-04-18T10:44:04.435Z,1023.63
2018-04-18T10:45:04.434Z,1023.6
2018-04-18T10:46:04.430Z,1023.55
2018-04-18T10:47:04.439Z,1023.58
2018-04-18T10:48:04.433Z,1023.58
2018-04-18T10:49:04.436Z,1023.58
2018-04-18T10:50:04.437Z,1023.55
2018-04-18T10:51:04.433Z,1023.54
2018-04-18T10:52:04.434Z,1023.56
2018-04-18T10:53:04.435Z,1023.62
2018-04-18T10:54:04.433Z,1023.61
2018-04-18T10:55:04.434Z,1023.59
2018-04-18T10:56:04.437Z,1023.58
2018-04-18T10:57:04.434Z,1023.57
2018-04-18T10:58:04.437Z,1023.54
2018-04-18T10:59:04.437Z,1023.55
2018-04-18T11:00:04.439Z,1023.53
2018-04-18T11:01:04.439Z,1023.57
2018-04-18T11:02:04.441Z,1023.54
2018-04-18T11:03:04.444Z,1023.52
2018-04-18T11:04:04.447Z,1023.52
2018-04-18T11:05:04.447Z,1023.5
2018-04-18T11:06:04.449Z,1023.54
2018-04-18T11:07:04.453Z,1023.53
2018-04-18T11:08:04.456Z,1023.45
2018-04-18T11:09:04.457Z,1023.45
2018-04-18T11:10:04.462Z,1023.49
2018-04-18T11:11:04.466Z,1023.48
2018-04-18T11:12:04.471Z,1023.5
2018-04-18T11:13:04.473Z,1023.58
2018-04-18T11:14:04.474Z,1023.65
2018-04-18T11:15:04.480Z,1023.64
2018-04-18T11:16:04.484Z,1023.65
2018-04-18T11:17:04.489Z,1023.63
2018-04-18T11:18:04.495Z,1023.66
2018-04-18T11:19:04.496Z,1023.68
2018-04-18T11:20:04.503Z,1023.62
2018-04-18T11:21:04.512Z,1023.61
2018-04-18T11:22:04.511Z,1023.62
2018-04-18T11:23:04.515Z,1023.63
2018-04-18T11:24:04.523Z,1023.59
2018-04-18T11:25:04.528Z,1023.57
2018-04-18T11:26:04.537Z,1023.59
2018-04-18T11:27:04.540Z,1023.6
2018-04-18T11:28:04.549Z,1023.63
2018-04-18T11:29:04.559Z,1023.62
2018-04-18T11:30:04.557Z,1023.57
2018-04-18T11:31:04.562Z,1023.6
2018-04-18T11:32:04.575Z,1023.57
2018-04-18T11:33:04.577Z,1023.55
2018-04-18T11:34:04.585Z,1023.51
2018-04-18T11:35:04.590Z,1023.51
2018-04-18T11:36:04.597Z,1023.44
2018-04-18T11:37:04.604Z,1023.46
2018-04-18T11:38:04.615Z,1023.46
2018-04-18T11:39:04.619Z,1023.45
2018-04-18T11:40:04.641Z,1023.41
2018-04-18T11:41:04.631Z,1023.43
2018-04-18T11:42:04.639Z,1023.44
2018-04-18T11:43:04.646Z,1023.43
2018-04-18T11:44:04.678Z,1023.42
2018-04-18T11:45:04.660Z,1023.45
2018-04-18T11:46:04.671Z,1023.45
2018-04-18T11:47:04.676Z,1023.48
2018-04-18T11:48:04.683Z,1023.44
2018-04-18T11:49:04.689Z,1023.42
2018-04-18T11:50:04.697Z,1023.44
2018-04-18T11:51:04.729Z,1023.38
2018-04-18T11:52:04.710Z,1023.39
2018-04-18T11:53:04.720Z,1023.4
2018-04-18T11:54:04.726Z,1023.4
2018-04-18T11:55:04.734Z,1023.4
2018-04-18T11:56:04.740Z,1023.34
2018-04-18T11:57:04.748Z,1023.36
2018-04-18T11:58:04.758Z,1023.41
2018-04-18T11:59:04.764Z,1023.37
2018-04-18T12:00:04.772Z,1023.37
2018-04-18T12:01:04.781Z,1023.35
2018-04-18T12:02:04.789Z,1023.33
2018-04-18T12:03:04.796Z,1023.32
2018-04-18T12:04:04.836Z,1023.31
2018-04-18T12:05:04.811Z,1023.28
2018-04-18T12:06:04.820Z,1023.32
2018-04-18T12:07:04.827Z,1023.29
2018-04-18T12:08:04.835Z,1023.32